createdAt,value
2018-11-05T00:00:28.167Z,0.00
2018-11-05T00:01:28.173Z,0.00
2018-11-05T00:02:27.983Z,0.00
2018-11-05T00:03:27.872Z,0.00
2018-11-05T00:04:27.774Z,0.00
2018-11-05T00:05:27.678Z,0.00
2018-11-05T00:06:27.582Z,0.00
2018-11-05T00:07:27.517Z,0.00
2018-11-05T00:08:27.498Z,0.00
2018-11-05T00:09:27.307Z,0.00
2018-11-05T00:10:27.197Z,0.00
2018-11-05T00:11:27.104Z,0.00
2018-11-05T00:12:27.023Z,0.00
2018-11-05T00:13:26.906Z,0.00
2018-11-05T00:14:26.813Z,0.00
2018-11-05T00:15:26.825Z,0.00
2018-11-05T00:16:26.617Z,0.00
2018-11-05T00:17:26.539Z,0.00
2018-11-05T00:18:26.425Z,0.00
2018-11-05T00:19:26.332Z,0.00
2018-11-05T00:20:26.236Z,0.00
2018-11-05T00:21:26.141Z,0.00
2018-11-05T00:22:26.164Z,0.00
2018-11-05T00:23:25.945Z,0.00
2018-11-05T00:24:25.849Z,0.00
2018-11-05T00:25:25.751Z,0.00
2018-11-05T00:26:25.657Z,0.00
2018-11-05T00:27:25.581Z,0.00
2018-11-05T00:28:25.564Z,0.00
2018-11-05T00:29:25.372Z,0.00
2018-11-05T00:30:25.274Z,0.00
2018-11-05T00:31:25.177Z,0.00
2018-11-05T00:32:25.095Z,0.00
2018-11-05T00:33:25.002Z,0.00
2018-11-05T00:34:24.887Z,0.00
2018-11-05T00:35:24.790Z,0.00
2018-11-05T00:36:24.805Z,0.00
2018-11-05T00:37:24.615Z,0.00
2018-11-05T00:38:24.500Z,0.00
2018-11-05T00:39:24.404Z,0.00
2018-11-05T00:40:24.309Z,0.00
2018-11-05T00:41:24.212Z,0.00
2018-11-05T00:42:24.237Z,0.00
2018-11-05T00:43:24.020Z,0.00
2018-11-05T00:44:23.922Z,0.00
2018-11-05T00:45:23.891Z,0.00
2018-11-05T00:46:23.732Z,0.00
2018-11-05T00:47:23.636Z,0.00
2018-11-05T00:48:23.556Z,0.00
2018-11-05T00:49:23.445Z,0.00
2018-11-05T00:50:23.350Z,0.00
2018-11-05T00:51:23.253Z,0.00
2018-11-05T00:52:23.157Z,0.00
2018-11-05T00:53:23.073Z,0.00
2018-11-05T00:54:22.959Z,0.00
2018-11-05T00:55:22.866Z,0.00
2018-11-05T00:56:24.221Z,0.00
2018-11-05T00:57:22.676Z,0.00
2018-11-05T00:58:22.591Z,0.00
2018-11-05T00:59:22.484Z,0.00
2018-11-05T01:00:22.388Z,0.00
2018-11-05T01:01:22.292Z,0.00
2018-11-05T01:02:22.198Z,0.00
2018-11-05T01:03:22.115Z,0.00
2018-11-05T01:04:22.000Z,0.00
2018-11-05T01:05:21.907Z,0.00
2018-11-05T01:06:21.822Z,0.00
2018-11-05T01:07:21.710Z,0.00
2018-11-05T01:08:21.631Z,0.00
2018-11-05T01:09:21.518Z,0.00
2018-11-05T01:10:21.420Z,0.00
2018-11-05T01:11:21.326Z,0.00
2018-11-05T01:12:21.229Z,0.00
2018-11-05T01:13:21.150Z,0.00
2018-11-05T01:14:21.035Z,0.00
2018-11-05T01:15:20.939Z,0.00
2018-11-05T01:16:20.845Z,0.00
2018-11-05T01:17:20.745Z,0.00
2018-11-05T01:18:20.670Z,0.00
2018-11-05T01:19:20.553Z,0.00
2018-11-05T01:20:20.456Z,0.00
2018-11-05T01:21:20.362Z,0.00
2018-11-05T01:22:20.267Z,0.00
2018-11-05T01:23:20.185Z,0.00
2018-11-05T01:24:20.075Z,0.00
2018-11-05T01:25:20.020Z,0.00
2018-11-05T01:26:19.882Z,0.00
2018-11-05T01:27:19.785Z,0.00
2018-11-05T01:28:19.704Z,0.00
2018-11-05T01:29:19.590Z,0.00
2018-11-05T01:30:19.494Z,0.00
2018-11-05T01:31:19.399Z,0.00
2018-11-05T01:32:19.299Z,0.00
2018-11-05T01:33:19.220Z,0.00
2018-11-05T01:34:19.109Z,0.00
2018-11-05T01:35:19.013Z,0.00
2018-11-05T01:36:18.916Z,0.00
2018-11-05T01:37:18.887Z,0.00
2018-11-05T01:38:18.740Z,0.00
2018-11-05T01:39:18.625Z,0.00
2018-11-05T01:40:18.532Z,0.00
2018-11-05T01:41:18.438Z,0.00
2018-11-05T01:42:18.336Z,0.00
2018-11-05T01:43:18.254Z,0.00
2018-11-05T01:44:18.142Z,0.00
2018-11-05T01:45:18.045Z,0.00
2018-11-05T01:46:17.950Z,0.00
2018-11-05T01:47:17.856Z,0.00
2018-11-05T01:48:17.772Z,0.00
2018-11-05T01:49:17.662Z,0.00
2018-11-05T01:50:17.562Z,0.00
2018-11-05T01:51:17.465Z,0.00
2018-11-05T01:52:17.365Z,0.00
2018-11-05T01:53:17.312Z,0.00
2018-11-05T01:54:17.173Z,0.00
2018-11-05T01:55:17.080Z,0.00
2018-11-05T01:56:16.982Z,0.00
2018-11-05T01:57:16.882Z,0.00
2018-11-05T01:58:16.810Z,0.00
2018-11-05T01:59:16.799Z,0.00
2018-11-05T02:00:16.594Z,0.00
2018-11-05T02:01:16.499Z,0.00
2018-11-05T02:02:16.404Z,0.00
2018-11-05T02:03:16.324Z,0.00
2018-11-05T02:04:16.207Z,0.00
2018-11-05T02:05:16.129Z,0.00
2018-11-05T02:06:16.148Z,0.00
2018-11-05T02:07:15.923Z,0.00
2018-11-05T02:08:15.840Z,0.00
2018-11-05T02:09:15.725Z,0.00
2018-11-05T02:10:15.743Z,0.00
2018-11-05T02:11:15.534Z,0.00
2018-11-05T02:12:15.435Z,0.00
2018-11-05T02:13:15.478Z,0.00
2018-11-05T02:14:15.241Z,0.00
2018-11-05T02:15:15.145Z,0.00
2018-11-05T02:16:15.092Z,0.00
2018-11-05T02:17:14.951Z,0.00
2018-11-05T02:18:14.875Z,0.00
2018-11-05T02:19:14.765Z,0.00
2018-11-05T02:20:14.766Z,0.00
2018-11-05T02:21:14.565Z,0.00
2018-11-05T02:22:14.474Z,0.00
2018-11-05T02:23:14.390Z,0.00
2018-11-05T02:24:14.277Z,0.00
2018-11-05T02:25:14.181Z,0.00
2018-11-05T02:26:14.082Z,0.00
2018-11-05T02:27:14.181Z,0.00
2018-11-05T02:28:13.894Z,0.00
2018-11-05T02:29:13.811Z,0.00
2018-11-05T02:30:13.705Z,0.00
2018-11-05T02:31:13.604Z,0.00
2018-11-05T02:32:13.507Z,0.00
2018-11-05T02:33:13.414Z,0.00
2018-11-05T02:34:13.424Z,0.00
2018-11-05T02:35:13.215Z,0.00
2018-11-05T02:36:13.114Z,0.00
2018-11-05T02:37:13.017Z,0.00
2018-11-05T02:38:12.923Z,0.00
2018-11-05T02:39:12.848Z,0.00
2018-11-05T02:40:12.726Z,0.00
2018-11-05T02:41:12.734Z,0.00
2018-11-05T02:42:12.538Z,0.00
2018-11-05T02:43:12.441Z,0.00
2018-11-05T02:44:12.361Z,0.00
2018-11-05T02:45:12.251Z,0.00
2018-11-05T02:46:12.149Z,0.00
2018-11-05T02:47:12.050Z,0.00
2018-11-05T02:48:12.061Z,0.00
2018-11-05T02:49:11.875Z,0.00
2018-11-05T02:50:11.761Z,0.00
2018-11-05T02:51:11.668Z,0.00
2018-11-05T02:52:11.572Z,0.00
2018-11-05T02:53:11.468Z,0.00
2018-11-05T02:54:11.392Z,0.00
2018-11-05T02:55:11.386Z,0.00
2018-11-05T02:56:11.182Z,0.00
2018-11-05T02:57:11.082Z,0.00
2018-11-05T02:58:10.985Z,0.00
2018-11-05T02:59:10.907Z,0.00
2018-11-05T03:00:10.799Z,0.00
2018-11-05T03:01:10.696Z,0.00
2018-11-05T03:02:10.708Z,0.00
2018-11-05T03:03:10.656Z,0.00
2018-11-05T03:04:10.440Z,0.00
2018-11-05T03:05:10.316Z,0.00
2018-11-05T03:06:10.213Z,0.00
2018-11-05T03:07:10.114Z,0.00
2018-11-05T03:08:10.017Z,0.00
2018-11-05T03:09:09.937Z,0.00
2018-11-05T03:10:09.833Z,0.00
2018-11-05T03:11:09.727Z,0.00
2018-11-05T03:12:09.632Z,0.00
2018-11-05T03:13:09.535Z,0.00
2018-11-05T03:14:09.473Z,0.00
2018-11-05T03:15:09.352Z,0.00
2018-11-05T03:16:09.245Z,0.00
2018-11-05T03:17:09.149Z,0.00
2018-11-05T03:18:09.052Z,0.00
2018-11-05T03:19:08.975Z,0.00
2018-11-05T03:20:08.855Z,0.00
2018-11-05T03:21:08.761Z,0.00
2018-11-05T03:22:08.661Z,0.00
2018-11-05T03:23:08.565Z,0.00
2018-11-05T03:24:08.483Z,0.00
2018-11-05T03:25:08.370Z,0.00
2018-11-05T03:26:08.274Z,0.00
2018-11-05T03:27:08.179Z,0.00
2018-11-05T03:28:08.084Z,0.00
2018-11-05T03:29:08.002Z,0.00
2018-11-05T03:30:07.890Z,0.00
2018-11-05T03:31:07.911Z,0.00
2018-11-05T03:32:07.695Z,0.00
2018-11-05T03:33:07.599Z,0.00
2018-11-05T03:34:07.517Z,0.00
2018-11-05T03:35:07.407Z,0.00
2018-11-05T03:36:07.306Z,0.00
2018-11-05T03:37:07.213Z,0.00
2018-11-05T03:38:07.112Z,0.00
2018-11-05T03:39:07.033Z,0.00
2018-11-05T03:40:06.920Z,0.00
2018-11-05T03:41:06.820Z,0.00
2018-11-05T03:42:06.726Z,0.00
2018-11-05T03:43:06.627Z,0.00
2018-11-05T03:44:06.550Z,0.00
2018-11-05T03:45:06.432Z,0.00
2018-11-05T03:46:06.350Z,0.00
2018-11-05T03:47:06.243Z,0.00
2018-11-05T03:48:06.148Z,0.00
2018-11-05T03:49:06.063Z,0.00
2018-11-05T03:50:05.952Z,0.00
2018-11-05T03:51:05.854Z,0.00
2018-11-05T03:52:05.754Z,0.00
2018-11-05T03:53:05.659Z,0.00
2018-11-05T03:54:05.579Z,0.00
2018-11-05T03:55:05.468Z,0.00
2018-11-05T03:56:05.450Z,0.00
2018-11-05T03:57:05.269Z,0.00
2018-11-05T03:58:05.174Z,0.00
2018-11-05T03:59:05.095Z,0.00
2018-11-05T04:00:04.977Z,0.00
2018-11-05T04:01:04.881Z,0.00
2018-11-05T04:02:04.806Z,0.00
2018-11-05T04:03:04.724Z,0.00
2018-11-05T04:04:04.611Z,0.00
2018-11-05T04:05:04.498Z,0.00
2018-11-05T04:06:04.402Z,0.00
2018-11-05T04:07:04.303Z,0.00
2018-11-05T04:08:04.203Z,0.00
2018-11-05T04:09:04.126Z,0.00
2018-11-05T04:10:04.013Z,0.00
2018-11-05T04:11:03.916Z,0.00
2018-11-05T04:12:03.817Z,0.00
2018-11-05T04:13:03.719Z,0.00
2018-11-05T04:14:03.643Z,0.00
2018-11-05T04:15:03.527Z,0.00
2018-11-05T04:16:03.444Z,0.00
2018-11-05T04:17:03.330Z,0.00
2018-11-05T04:18:03.236Z,0.00
2018-11-05T04:19:03.142Z,0.00
2018-11-05T04:20:03.061Z,0.00
2018-11-05T04:21:02.943Z,0.00
2018-11-05T04:22:02.849Z,0.00
2018-11-05T04:23:02.753Z,0.00
2018-11-05T04:24:02.654Z,0.00
2018-11-05T04:25:02.581Z,0.00
2018-11-05T04:26:02.461Z,0.00
2018-11-05T04:27:02.364Z,0.00
2018-11-05T04:28:02.325Z,0.00
2018-11-05T04:29:02.176Z,0.00
2018-11-05T04:30:02.095Z,0.00
2018-11-05T04:31:01.983Z,0.00
2018-11-05T04:32:01.879Z,0.00
2018-11-05T04:33:01.782Z,0.00
2018-11-05T04:34:01.690Z,0.00
2018-11-05T04:35:01.608Z,0.00
2018-11-05T04:36:01.491Z,0.00
2018-11-05T04:37:01.400Z,0.00
2018-11-05T04:38:01.301Z,0.00
2018-11-05T04:39:01.205Z,0.00
2018-11-05T04:40:01.129Z,0.00
2018-11-05T04:41:01.009Z,0.00
2018-11-05T04:42:00.911Z,0.00
2018-11-05T04:43:00.821Z,0.00
2018-11-05T04:44:00.714Z,0.00
2018-11-05T04:45:00.637Z,0.00
2018-11-05T04:46:00.528Z,0.00
2018-11-05T04:47:00.424Z,0.00
2018-11-05T04:48:00.325Z,0.00
2018-11-05T04:49:00.246Z,0.00
2018-11-05T04:50:00.152Z,0.00
2018-11-05T04:51:00.039Z,0.00
2018-11-05T04:51:59.954Z,0.00
2018-11-05T04:52:59.846Z,0.00
2018-11-05T04:53:59.746Z,0.00
2018-11-05T04:54:59.667Z,0.00
2018-11-05T04:55:59.552Z,0.00
2018-11-05T04:56:59.458Z,0.00
2018-11-05T04:57:59.362Z,0.00
2018-11-05T04:58:59.266Z,0.00
2018-11-05T04:59:59.182Z,0.00
2018-11-05T05:00:59.071Z,0.00
2018-11-05T05:01:58.975Z,0.00
2018-11-05T05:02:58.876Z,0.00
2018-11-05T05:03:58.776Z,0.00
2018-11-05T05:04:58.701Z,0.00
2018-11-05T05:05:58.584Z,0.00
2018-11-05T05:06:58.489Z,0.00
2018-11-05T05:07:58.393Z,0.00
2018-11-05T05:08:58.294Z,0.00
2018-11-05T05:09:58.216Z,0.00
2018-11-05T05:10:58.101Z,0.00
2018-11-05T05:11:58.003Z,0.00
2018-11-05T05:12:57.907Z,0.00
2018-11-05T05:13:57.812Z,0.00
2018-11-05T05:14:57.837Z,0.00
2018-11-05T05:15:57.622Z,0.00
2018-11-05T05:16:57.523Z,0.00
2018-11-05T05:17:57.428Z,0.00
2018-11-05T05:18:57.331Z,0.00
2018-11-05T05:19:57.259Z,0.00
2018-11-05T05:20:57.140Z,0.00
2018-11-05T05:21:57.143Z,0.00
2018-11-05T05:22:57.094Z,0.00
2018-11-05T05:23:56.845Z,0.00
2018-11-05T05:24:56.770Z,0.00
2018-11-05T05:25:56.653Z,0.00
2018-11-05T05:26:56.557Z,0.00
2018-11-05T05:27:56.461Z,0.00
2018-11-05T05:28:56.461Z,0.00
2018-11-05T05:29:56.301Z,0.00
2018-11-05T05:30:56.167Z,0.00
2018-11-05T05:31:56.073Z,0.00
2018-11-05T05:32:56.017Z,0.00
2018-11-05T05:33:55.880Z,0.00
2018-11-05T05:34:55.800Z,0.00
2018-11-05T05:35:55.788Z,0.00
2018-11-05T05:36:55.589Z,0.00
2018-11-05T05:37:55.491Z,0.00
2018-11-05T05:38:55.397Z,4.00
2018-11-05T05:39:55.317Z,4.00
2018-11-05T05:40:55.317Z,4.00
2018-11-05T05:41:55.106Z,4.00
2018-11-05T05:42:55.118Z,4.00
2018-11-05T05:43:54.913Z,4.00
2018-11-05T05:44:54.834Z,8.00
2018-11-05T05:45:54.719Z,8.00
2018-11-05T05:46:54.624Z,8.00
2018-11-05T05:47:54.526Z,12.00
2018-11-05T05:48:54.439Z,16.00
2018-11-05T05:49:54.501Z,20.00
2018-11-05T05:50:54.236Z,24.00
2018-11-05T05:51:54.139Z,24.00
2018-11-05T05:52:54.049Z,28.00
2018-11-05T05:53:53.948Z,32.00
2018-11-05T05:54:53.866Z,40.00
2018-11-05T05:55:53.751Z,44.00
2018-11-05T05:56:53.758Z,60.00
2018-11-05T05:57:53.561Z,60.00
2018-11-05T05:58:53.461Z,72.00
2018-11-05T05:59:53.426Z,80.00
2018-11-05T06:00:53.288Z,84.00
2018-11-05T06:01:53.174Z,92.00
2018-11-05T06:02:53.073Z,104.00
2018-11-05T06:03:53.086Z,108.00
2018-11-05T06:04:56.568Z,120.00
2018-11-05T06:05:52.848Z,140.00
2018-11-05T06:06:52.690Z,152.00
2018-11-05T06:07:52.593Z,156.00
2018-11-05T06:08:52.494Z,176.00
2018-11-05T06:09:52.401Z,188.00
2018-11-05T06:10:52.321Z,208.00
2018-11-05T06:11:52.204Z,236.00
2018-11-05T06:12:52.109Z,260.00
2018-11-05T06:13:52.013Z,304.00
2018-11-05T06:14:51.920Z,312.00
2018-11-05T06:15:51.924Z,360.00
2018-11-05T06:16:51.722Z,400.00
2018-11-05T06:17:51.627Z,456.00
2018-11-05T06:18:51.533Z,488.00
2018-11-05T06:19:51.434Z,500.00
2018-11-05T06:20:51.352Z,544.00
2018-11-05T06:21:51.311Z,560.00
2018-11-05T06:22:51.141Z,632.00
2018-11-05T06:23:51.048Z,664.00
2018-11-05T06:24:50.947Z,700.00
2018-11-05T06:25:50.867Z,748.00
2018-11-05T06:26:50.754Z,792.00
2018-11-05T06:27:50.673Z,808.00
2018-11-05T06:28:50.564Z,832.00
2018-11-05T06:29:50.466Z,820.00
2018-11-05T06:30:50.392Z,892.00
2018-11-05T06:31:50.273Z,972.00
2018-11-05T06:32:50.179Z,1036.00
2018-11-05T06:33:50.088Z,1180.00
2018-11-05T06:34:49.986Z,1256.00
2018-11-05T06:35:49.902Z,1408.00
2018-11-05T06:36:49.790Z,1408.00
2018-11-05T06:37:49.690Z,1548.00
2018-11-05T06:38:49.597Z,1776.00
2018-11-05T06:39:49.502Z,1868.00
2018-11-05T06:40:49.418Z,1836.00
2018-11-05T06:41:49.369Z,1896.00
2018-11-05T06:42:49.211Z,2416.00
2018-11-05T06:43:49.115Z,1944.00
2018-11-05T06:44:49.080Z,1948.00
2018-11-05T06:45:48.942Z,1948.00
2018-11-05T06:46:48.823Z,2176.00
2018-11-05T06:47:48.725Z,1932.00
2018-11-05T06:48:48.684Z,1924.00
2018-11-05T06:49:48.532Z,1932.00
2018-11-05T06:50:48.454Z,1988.00
2018-11-05T06:51:48.338Z,2044.00
2018-11-05T06:52:48.284Z,1852.00
2018-11-05T06:53:48.149Z,1940.00
2018-11-05T06:54:48.056Z,1892.00
2018-11-05T06:55:47.968Z,2100.00
2018-11-05T06:56:47.855Z,2144.00
2018-11-05T06:57:47.843Z,2296.00
2018-11-05T06:58:47.665Z,2308.00
2018-11-05T06:59:47.570Z,2700.00
2018-11-05T07:00:47.524Z,2648.00
2018-11-05T07:01:47.377Z,2876.00
2018-11-05T07:02:47.281Z,2812.00
2018-11-05T07:03:47.183Z,2924.00
2018-11-05T07:04:47.088Z,2852.00
2018-11-05T07:05:47.024Z,3012.00
2018-11-05T07:06:46.894Z,2884.00
2018-11-05T07:07:46.798Z,2664.00
2018-11-05T07:08:46.702Z,2940.00
2018-11-05T07:09:46.672Z,3084.00
2018-11-05T07:10:46.523Z,3320.00
2018-11-05T07:11:46.410Z,3380.00
2018-11-05T07:12:46.419Z,3252.00
2018-11-05T07:13:46.220Z,3360.00
2018-11-05T07:14:46.125Z,3436.00
2018-11-05T07:15:46.043Z,3400.00
2018-11-05T07:16:45.934Z,3280.00
2018-11-05T07:17:45.832Z,3740.00
2018-11-05T07:18:46.014Z,3344.00
2018-11-05T07:19:45.645Z,3360.00
2018-11-05T07:20:45.562Z,3744.00
2018-11-05T07:21:45.449Z,3848.00
2018-11-05T07:22:45.350Z,4200.00
2018-11-05T07:23:45.253Z,4812.00
2018-11-05T07:24:45.161Z,4232.00
2018-11-05T07:25:45.082Z,4332.00
2018-11-05T07:26:45.071Z,4436.00
2018-11-05T07:27:44.971Z,4284.00
2018-11-05T07:28:44.779Z,4592.00
2018-11-05T07:29:44.677Z,4428.00
2018-11-05T07:30:44.601Z,4496.00
2018-11-05T07:31:44.483Z,4420.00
2018-11-05T07:32:44.389Z,4540.00
2018-11-05T07:33:44.466Z,4504.00
2018-11-05T07:34:44.199Z,4748.00
2018-11-05T07:35:44.118Z,4076.00
2018-11-05T07:36:44.007Z,4260.00
2018-11-05T07:37:43.906Z,4804.00
2018-11-05T07:38:43.818Z,4732.00
2018-11-05T07:39:43.718Z,4560.00
2018-11-05T07:40:43.743Z,4644.00
2018-11-05T07:41:43.526Z,4588.00
2018-11-05T07:42:43.429Z,4808.00
2018-11-05T07:43:43.333Z,5104.00
2018-11-05T07:44:43.237Z,5308.00
2018-11-05T07:45:43.158Z,5440.00
2018-11-05T07:46:43.043Z,5528.00
2018-11-05T07:47:43.065Z,5960.00
2018-11-05T07:48:42.854Z,6336.00
2018-11-05T07:49:42.755Z,6176.00
2018-11-05T07:50:42.723Z,6572.00
2018-11-05T07:51:42.580Z,6700.00
2018-11-05T07:52:42.468Z,7172.00
2018-11-05T07:53:42.370Z,7088.00
2018-11-05T07:54:42.380Z,6992.00
2018-11-05T07:55:42.181Z,7040.00
2018-11-05T07:56:42.109Z,6748.00
2018-11-05T07:57:41.990Z,6692.00
2018-11-05T07:58:41.890Z,6852.00
2018-11-05T07:59:41.792Z,6792.00
2018-11-05T08:00:41.700Z,6684.00
2018-11-05T08:01:41.763Z,6880.00
2018-11-05T08:02:41.529Z,6956.00
2018-11-05T08:03:41.408Z,7220.00
2018-11-05T08:04:41.320Z,7660.00
2018-11-05T08:05:41.219Z,7756.00
2018-11-05T08:06:41.137Z,7972.00
2018-11-05T08:07:41.026Z,8036.00
2018-11-05T08:08:41.029Z,7972.00
2018-11-05T08:09:40.830Z,7808.00
2018-11-05T08:10:40.739Z,7900.00
2018-11-05T08:11:40.656Z,8004.00
2018-11-05T08:12:40.542Z,8116.00
2018-11-05T08:13:40.449Z,8144.00
2018-11-05T08:14:40.357Z,8480.00
2018-11-05T08:15:40.402Z,8636.00
2018-11-05T08:16:40.177Z,8896.00
2018-11-05T08:17:40.067Z,9112.00
2018-11-05T08:18:39.982Z,9232.00
2018-11-05T08:19:39.873Z,9336.00
2018-11-05T08:20:39.775Z,8988.00
2018-11-05T08:21:39.696Z,8576.00
2018-11-05T08:22:39.683Z,8432.00
2018-11-05T08:23:39.491Z,8132.00
2018-11-05T08:24:39.395Z,8088.00
2018-11-05T08:25:39.301Z,7980.00
2018-11-05T08:26:39.220Z,7900.00
2018-11-05T08:27:39.108Z,7836.00
2018-11-05T08:28:39.015Z,7520.00
2018-11-05T08:29:39.014Z,7256.00
2018-11-05T08:30:38.821Z,7236.00
2018-11-05T08:31:38.740Z,7640.00
2018-11-05T08:32:38.630Z,7516.00
2018-11-05T08:33:38.535Z,7760.00
2018-11-05T08:34:38.442Z,7576.00
2018-11-05T08:35:38.339Z,8268.00
2018-11-05T08:36:38.367Z,7912.00
2018-11-05T08:37:38.158Z,8256.00
2018-11-05T08:38:38.055Z,8756.00
2018-11-05T08:39:37.959Z,8420.00
2018-11-05T08:40:37.864Z,8384.00
2018-11-05T08:41:37.790Z,8316.00
2018-11-05T08:42:37.770Z,8868.00
2018-11-05T08:43:37.577Z,9056.00
2018-11-05T08:44:37.480Z,9104.00
2018-11-05T08:45:37.386Z,9228.00
2018-11-05T08:46:37.356Z,9452.00
2018-11-05T08:47:37.193Z,9596.00
2018-11-05T08:48:37.099Z,9564.00
2018-11-05T08:49:37.002Z,9496.00
2018-11-05T08:50:37.090Z,9372.00
2018-11-05T08:51:37.210Z,9512.00
2018-11-05T08:52:36.718Z,9760.00
2018-11-05T08:53:36.619Z,9760.00
2018-11-05T08:54:36.527Z,9780.00
2018-11-05T08:55:36.425Z,9736.00
2018-11-05T08:56:36.355Z,9768.00
2018-11-05T08:57:36.243Z,9544.00
2018-11-05T08:58:36.141Z,9440.00
2018-11-05T08:59:36.046Z,9412.00
2018-11-05T09:00:35.954Z,9376.00
2018-11-05T09:01:35.873Z,9332.00
2018-11-05T09:02:35.770Z,9312.00
2018-11-05T09:03:35.668Z,9300.00
2018-11-05T09:04:35.594Z,9084.00
2018-11-05T09:05:35.475Z,9056.00
2018-11-05T09:06:35.398Z,9292.00
2018-11-05T09:07:35.285Z,9052.00
2018-11-05T09:08:35.188Z,9004.00
2018-11-05T09:09:35.092Z,8644.00
2018-11-05T09:10:35.434Z,8736.00
2018-11-05T09:11:35.304Z,8848.00
2018-11-05T09:12:34.805Z,9200.00
2018-11-05T09:13:34.709Z,8928.00
2018-11-05T09:14:34.616Z,8940.00
2018-11-05T09:15:34.521Z,9560.00
2018-11-05T09:16:34.442Z,9908.00
2018-11-05T09:17:34.330Z,9812.00
2018-11-05T09:18:34.237Z,9724.00
2018-11-05T09:19:34.147Z,10088.00
2018-11-05T09:20:34.051Z,10100.00
2018-11-05T09:21:33.965Z,10152.00
2018-11-05T09:22:33.858Z,10440.00
2018-11-05T09:23:33.759Z,10704.00
2018-11-05T09:24:33.661Z,11108.00
2018-11-05T09:25:33.567Z,11464.00
2018-11-05T09:26:33.489Z,11692.00
2018-11-05T09:27:33.382Z,11604.00
2018-11-05T09:28:33.284Z,11608.00
2018-11-05T09:29:33.187Z,11716.00
2018-11-05T09:30:33.090Z,12016.00
2018-11-05T09:31:33.024Z,12048.00
2018-11-05T09:32:32.902Z,12200.00
2018-11-05T09:33:32.809Z,12724.00
2018-11-05T09:34:32.710Z,12824.00
2018-11-05T09:35:32.616Z,12684.00
2018-11-05T09:36:32.537Z,12072.00
2018-11-05T09:37:32.442Z,11976.00
2018-11-05T09:38:32.329Z,12312.00
2018-11-05T09:39:32.251Z,13120.00
2018-11-05T09:40:32.139Z,14440.00
2018-11-05T09:41:32.045Z,16096.00
2018-11-05T09:42:31.981Z,15712.00
2018-11-05T09:43:31.852Z,15560.00
2018-11-05T09:44:31.759Z,14800.00
2018-11-05T09:45:31.771Z,14900.00
2018-11-05T09:46:31.568Z,14828.00
2018-11-05T09:47:31.490Z,14164.00
2018-11-05T09:48:31.378Z,14032.00
2018-11-05T09:49:31.291Z,13532.00
2018-11-05T09:50:31.265Z,13452.00
2018-11-05T09:51:31.093Z,13752.00
2018-11-05T09:52:31.103Z,13880.00
2018-11-05T09:53:30.902Z,14128.00
2018-11-05T09:54:30.814Z,14768.00
2018-11-05T09:55:30.744Z,15180.00
2018-11-05T09:56:30.623Z,15620.00
2018-11-05T09:57:30.543Z,15876.00
2018-11-05T09:58:30.429Z,15636.00
2018-11-05T09:59:30.443Z,15264.00
2018-11-05T10:00:30.239Z,16288.00
2018-11-05T10:01:30.147Z,17696.00
2018-11-05T10:02:30.055Z,17760.00
2018-11-05T10:03:30.239Z,17472.00
2018-11-05T10:04:30.069Z,17056.00
2018-11-05T10:05:29.848Z,15580.00
2018-11-05T10:06:29.783Z,15860.00
2018-11-05T10:07:29.576Z,18208.00
2018-11-05T10:08:29.500Z,15012.00
2018-11-05T10:09:29.480Z,14956.00
2018-11-05T10:10:29.327Z,14332.00
2018-11-05T10:11:29.200Z,14388.00
2018-11-05T10:12:29.109Z,13936.00
2018-11-05T10:13:29.028Z,14576.00
2018-11-05T10:14:28.918Z,14016.00
2018-11-05T10:15:28.819Z,13200.00
2018-11-05T10:16:28.808Z,12540.00
2018-11-05T10:17:28.629Z,12464.00
2018-11-05T10:18:28.554Z,12260.00
2018-11-05T10:19:28.445Z,12116.00
2018-11-05T10:20:28.347Z,11952.00
2018-11-05T10:21:28.259Z,11692.00
2018-11-05T10:22:28.167Z,11464.00
2018-11-05T10:23:28.081Z,11476.00
2018-11-05T10:24:28.035Z,11728.00
2018-11-05T10:25:27.883Z,12424.00
2018-11-05T10:26:27.786Z,13184.00
2018-11-05T10:27:27.703Z,14272.00
2018-11-05T10:28:27.711Z,16640.00
2018-11-05T10:29:27.497Z,18560.00
2018-11-05T10:30:27.405Z,19712.00
2018-11-05T10:31:27.320Z,15940.00
2018-11-05T10:32:27.213Z,16456.00
2018-11-05T10:33:27.201Z,15756.00
2018-11-05T10:34:27.027Z,16504.00
2018-11-05T10:35:27.036Z,16052.00
2018-11-05T10:36:26.835Z,17216.00
2018-11-05T10:37:26.745Z,16336.00
2018-11-05T10:38:26.685Z,15540.00
2018-11-05T10:39:26.557Z,15884.00
2018-11-05T10:40:26.515Z,15532.00
2018-11-05T10:41:26.370Z,15956.00
2018-11-05T10:42:26.376Z,15328.00
2018-11-05T10:43:26.194Z,17216.00
2018-11-05T10:44:26.080Z,16124.00
2018-11-05T10:45:25.988Z,16120.00
2018-11-05T10:46:25.994Z,16492.00
2018-11-05T10:47:25.802Z,16832.00
2018-11-05T10:48:25.723Z,17024.00
2018-11-05T10:49:25.714Z,17184.00
2018-11-05T10:50:25.634Z,16380.00
2018-11-05T10:51:25.505Z,16212.00
2018-11-05T10:52:25.384Z,17152.00
2018-11-05T10:53:25.246Z,17216.00
2018-11-05T10:54:25.145Z,15300.00
2018-11-05T10:55:25.046Z,14680.00
2018-11-05T10:56:25.050Z,14588.00
2018-11-05T10:57:24.884Z,14784.00
2018-11-05T10:58:24.781Z,14824.00
2018-11-05T10:59:24.665Z,15028.00
2018-11-05T11:00:24.572Z,15188.00
2018-11-05T11:01:24.480Z,15104.00
2018-11-05T11:02:24.390Z,15248.00
2018-11-05T11:03:24.410Z,16044.00
2018-11-05T11:04:24.200Z,15952.00
2018-11-05T11:05:24.108Z,15868.00
2018-11-05T11:06:24.012Z,17024.00
2018-11-05T11:07:23.925Z,17888.00
2018-11-05T11:08:23.834Z,18368.00
2018-11-05T11:09:23.868Z,17824.00
2018-11-05T11:10:23.630Z,16832.00
2018-11-05T11:11:23.535Z,16704.00
2018-11-05T11:12:23.452Z,16360.00
2018-11-05T11:13:23.355Z,16640.00
2018-11-05T11:14:23.272Z,17600.00
2018-11-05T11:15:23.232Z,18144.00
2018-11-05T11:16:23.066Z,17664.00
2018-11-05T11:17:22.972Z,16800.00
2018-11-05T11:18:22.897Z,18816.00
2018-11-05T11:19:22.784Z,20064.00
2018-11-05T11:20:22.690Z,20032.00
2018-11-05T11:21:22.594Z,18368.00
2018-11-05T11:22:22.507Z,16160.00
2018-11-05T11:23:22.410Z,15044.00
2018-11-05T11:24:22.336Z,14916.00
2018-11-05T11:25:22.219Z,14692.00
2018-11-05T11:26:22.126Z,14496.00
2018-11-05T11:27:22.030Z,14756.00
2018-11-05T11:28:22.003Z,14960.00
2018-11-05T11:29:21.938Z,15048.00
2018-11-05T11:30:21.752Z,14840.00
2018-11-05T11:31:21.662Z,14372.00
2018-11-05T11:32:21.562Z,13864.00
2018-11-05T11:33:21.472Z,13364.00
2018-11-05T11:34:21.395Z,13048.00
2018-11-05T11:35:21.279Z,13124.00
2018-11-05T11:36:21.186Z,13432.00
2018-11-05T11:37:21.171Z,13400.00
2018-11-05T11:38:21.000Z,13532.00
2018-11-05T11:39:20.916Z,13472.00
2018-11-05T11:40:20.808Z,13484.00
2018-11-05T11:41:20.711Z,13568.00
2018-11-05T11:42:20.631Z,13532.00
2018-11-05T11:43:20.525Z,13472.00
2018-11-05T11:44:20.548Z,13744.00
2018-11-05T11:45:20.337Z,13664.00
2018-11-05T11:46:20.241Z,13708.00
2018-11-05T11:47:20.145Z,13760.00
2018-11-05T11:48:20.056Z,13712.00
2018-11-05T11:49:19.973Z,13692.00
2018-11-05T11:50:19.865Z,13852.00
2018-11-05T11:51:19.775Z,14064.00
2018-11-05T11:52:19.682Z,14572.00
2018-11-05T11:53:19.666Z,15164.00
2018-11-05T11:54:19.502Z,15688.00
2018-11-05T11:55:19.393Z,17056.00
2018-11-05T11:56:19.301Z,15856.00
2018-11-05T11:57:19.218Z,15548.00
2018-11-05T11:58:19.108Z,16432.00
2018-11-05T11:59:19.030Z,18336.00
2018-11-05T12:00:18.919Z,18816.00
2018-11-05T12:01:18.835Z,19040.00
2018-11-05T12:02:18.795Z,19424.00
2018-11-05T12:03:18.671Z,19936.00
2018-11-05T12:04:18.556Z,20224.00
2018-11-05T12:05:18.581Z,22048.00
2018-11-05T12:06:18.357Z,19552.00
2018-11-05T12:07:18.258Z,18912.00
2018-11-05T12:08:18.162Z,21216.00
2018-11-05T12:09:18.086Z,24736.00
2018-11-05T12:10:17.979Z,24160.00
2018-11-05T12:11:17.884Z,23168.00
2018-11-05T12:12:17.789Z,19136.00
2018-11-05T12:13:17.693Z,20032.00
2018-11-05T12:14:17.631Z,19328.00
2018-11-05T12:15:17.509Z,17568.00
2018-11-05T12:16:17.414Z,16076.00
2018-11-05T12:17:17.326Z,14484.00
2018-11-05T12:18:17.247Z,13740.00
2018-11-05T12:19:17.261Z,14780.00
2018-11-05T12:20:17.049Z,16064.00
2018-11-05T12:21:16.946Z,15800.00
2018-11-05T12:22:16.851Z,16992.00
2018-11-05T12:23:16.762Z,16864.00
2018-11-05T12:24:16.681Z,17024.00
2018-11-05T12:25:16.568Z,15440.00
2018-11-05T12:26:16.579Z,14908.00
2018-11-05T12:27:16.395Z,14288.00
2018-11-05T12:28:16.289Z,14232.00
2018-11-05T12:29:16.211Z,14504.00
2018-11-05T12:30:16.100Z,14740.00
2018-11-05T12:31:16.006Z,14056.00
2018-11-05T12:32:15.920Z,13992.00